Time;durP1;ratioP1;P1;durP2;ratioP2;P2;SDS_P1;SDS_P2;PMS_P1;PMS_P2;Temp;Humidity;BMP_temperature;BMP_pressure;BME280_temperature;BME280_humidity;BME280_pressure;Samples;Min_cycle;Max_cycle;Signal;HPM_P1;HPM_P2
2024/03/29 00:02:12;;;;;;;5.15;0.82;;;;;;;;;;5070830;28;20515;-78
2024/03/29 00:04:38;;;;;;;7.80;1.20;;;;;;;;;;5071031;28;20032;-77
2024/03/29 00:07:04;;;;;;;9.65;1.77;;;;;;;;;;5071192;28;20029;-78
2024/03/29 00:09:30;;;;;;;6.00;1.23;;;;;;;;;;5070919;28;20025;-78
2024/03/29 00:11:56;;;;;;;5.95;1.75;;;;;;;;;;5071047;28;20035;-77
2024/03/29 00:14:22;;;;;;;11.05;1.80;;;;;;;;;;5070811;28;20024;-77
2024/03/29 00:16:48;;;;;;;8.20;1.10;;;;;;;;;;5070945;28;20032;-78
2024/03/29 00:19:14;;;;;;;6.45;1.20;;;;;;;;;;5070790;28;20055;-77
2024/03/29 00:21:40;;;;;;;5.03;1.15;;;;;;;;;;5070862;28;20387;-77
2024/03/29 00:24:06;;;;;;;7.28;1.30;;;;;;;;;;5071015;28;20052;-78
2024/03/29 00:26:32;;;;;;;5.70;0.95;;;;;;;;;;5070577;28;20377;-78
2024/03/29 00:28:58;;;;;;;4.97;1.15;;;;;;;;;;5072329;28;20058;-77
2024/03/29 00:31:24;;;;;;;7.95;1.40;;;;;;;;;;5070646;28;20086;-78
2024/03/29 00:33:50;;;;;;;8.80;2.33;;;;;;;;;;5072454;28;20461;-77
2024/03/29 00:36:16;;;;;;;1.98;0.80;;;;;;;;;;5070636;28;20032;-79
2024/03/29 00:38:42;;;;;;;6.32;1.17;;;;;;;;;;5071029;28;20028;-77
2024/03/29 00:41:08;;;;;;;5.50;1.23;;;;;;;;;;5072126;28;20029;-79
2024/03/29 00:43:34;;;;;;;5.63;1.45;;;;;;;;;;5070755;28;20017;-79
2024/03/29 00:46:00;;;;;;;5.53;1.00;;;;;;;;;;5071959;28;20406;-79
2024/03/29 00:48:27;;;;;;;9.27;1.90;;;;;;;;;;5071818;28;20468;-78
2024/03/29 00:50:53;;;;;;;5.15;1.05;;;;;;;;;;5072229;28;20020;-77
2024/03/29 00:53:19;;;;;;;5.20;1.10;;;;;;;;;;5071941;28;20029;-78
2024/03/29 00:55:45;;;;;;;6.30;1.17;;;;;;;;;;5071798;28;20439;-77
2024/03/29 00:58:11;;;;;;;4.75;1.10;;;;;;;;;;5070665;28;20108;-78
2024/03/29 01:00:37;;;;;;;5.95;0.90;;;;;;;;;;5072383;28;20108;-78
2024/03/29 01:03:03;;;;;;;3.55;0.70;;;;;;;;;;5071076;28;20115;-78
2024/03/29 01:05:29;;;;;;;5.95;0.98;;;;;;;;;;5070677;28;20492;-79
2024/03/29 01:07:55;;;;;;;5.80;1.38;;;;;;;;;;5072933;28;20036;-77
2024/03/29 01:10:22;;;;;;;5.40;1.30;;;;;;;;;;5074425;28;20123;-77
2024/03/29 01:12:48;;;;;;;5.20;1.20;;;;;;;;;;5074072;28;20036;-77
2024/03/29 01:15:14;;;;;;;4.93;1.40;;;;;;;;;;5075413;28;20082;-77
2024/03/29 01:17:40;;;;;;;9.52;1.48;;;;;;;;;;5074331;28;20026;-77
2024/03/29 01:20:08;;;;;;;5.63;1.33;;;;;;;;;;5075548;28;20030;-76
2024/03/29 01:22:34;;;;;;;3.78;0.80;;;;;;;;;;5075280;28;20115;-77
2024/03/29 01:25:01;;;;;;;5.18;0.77;;;;;;;;;;5075156;28;20460;-78
2024/03/29 01:27:27;;;;;;;5.38;0.80;;;;;;;;;;5073907;28;20064;-78
2024/03/29 01:29:53;;;;;;;4.57;1.02;;;;;;;;;;5075691;28;20431;-78
2024/03/29 01:32:19;;;;;;;10.23;1.58;;;;;;;;;;5073855;28;20104;-78
2024/03/29 01:34:45;;;;;;;6.95;1.42;;;;;;;;;;5073929;28;20056;-77
2024/03/29 01:37:11;;;;;;;3.42;0.73;;;;;;;;;;5073989;28;20025;-78
2024/03/29 01:39:37;;;;;;;6.50;0.85;;;;;;;;;;5073752;28;20028;-77
2024/03/29 01:42:03;;;;;;;5.45;0.93;;;;;;;;;;5073911;28;20025;-79
2024/03/29 01:44:29;;;;;;;4.85;0.93;;;;;;;;;;5074717;28;20021;-78
2024/03/29 01:46:56;;;;;;;7.30;0.77;;;;;;;;;;5073782;28;20036;-79
2024/03/29 01:49:22;;;;;;;5.18;0.98;;;;;;;;;;5073943;28;20028;-78
2024/03/29 01:51:48;;;;;;;6.38;0.95;;;;;;;;;;5073439;28;20074;-80
2024/03/29 01:54:14;;;;;;;2.00;0.70;;;;;;;;;;5073785;28;20481;-79
2024/03/29 01:56:41;;;;;;;3.03;0.70;;;;;;;;;;5074486;28;20017;-80
2024/03/29 01:59:11;;;;;;;6.03;1.25;;;;;;;;;;5073223;28;20054;-77
2024/03/29 02:01:37;;;;;;;4.80;0.93;;;;;;;;;;5073195;28;20029;-79
2024/03/29 02:04:04;;;;;;;5.70;1.05;;;;;;;;;;5074919;28;20016;-79
2024/03/29 02:06:30;;;;;;;6.18;2.13;;;;;;;;;;5074040;28;20052;-79
2024/03/29 02:08:57;;;;;;;5.32;1.20;;;;;;;;;;5074888;28;20025;-80
2024/03/29 02:11:23;;;;;;;6.32;1.02;;;;;;;;;;5072969;28;20588;-80
2024/03/29 02:13:50;;;;;;;5.53;1.10;;;;;;;;;;5073159;28;20025;-81
2024/03/29 02:16:16;;;;;;;5.93;1.00;;;;;;;;;;5074262;28;20020;-78
2024/03/29 02:18:42;;;;;;;6.03;1.08;;;;;;;;;;5072245;28;20025;-79
2024/03/29 02:21:08;;;;;;;5.03;0.63;;;;;;;;;;5072768;28;20384;-79
2024/03/29 02:23:36;;;;;;;8.95;1.73;;;;;;;;;;5073772;28;20054;-77
2024/03/29 02:26:03;;;;;;;6.72;1.20;;;;;;;;;;5073971;28;20045;-82
2024/03/29 02:28:29;;;;;;;4.10;1.20;;;;;;;;;;5072616;28;20434;-81
2024/03/29 02:30:55;;;;;;;2.05;0.70;;;;;;;;;;5073029;28;20025;-81
2024/03/29 02:33:21;;;;;;;3.65;0.70;;;;;;;;;;5072967;28;20020;-81
2024/03/29 02:35:48;;;;;;;5.97;1.23;;;;;;;;;;5073746;28;20040;-80
2024/03/29 02:38:14;;;;;;;6.88;0.98;;;;;;;;;;5073224;28;20024;-81
2024/03/29 02:40:40;;;;;;;5.82;1.02;;;;;;;;;;5073246;28;20025;-80
2024/03/29 02:43:06;;;;;;;5.30;1.30;;;;;;;;;;5072957;28;20016;-79
2024/03/29 02:45:32;;;;;;;3.97;0.80;;;;;;;;;;5073302;28;20028;-81
2024/03/29 02:47:58;;;;;;;4.47;0.90;;;;;;;;;;5073543;28;20013;-81
2024/03/29 02:50:24;;;;;;;4.85;0.85;;;;;;;;;;5072372;28;20024;-80
2024/03/29 02:52:50;;;;;;;4.35;1.15;;;;;;;;;;5072536;28;20544;-81
2024/03/29 02:55:16;;;;;;;4.65;0.93;;;;;;;;;;5072560;28;20108;-80
2024/03/29 02:57:42;;;;;;;4.68;0.88;;;;;;;;;;5073267;28;20078;-79
2024/03/29 03:00:11;;;;;;;8.85;1.63;;;;;;;;;;5073762;28;20024;-80
2024/03/29 03:02:38;;;;;;;8.02;1.40;;;;;;;;;;5073360;28;20112;-80
2024/03/29 03:05:05;;;;;;;3.95;0.80;;;;;;;;;;5072168;28;20032;-79
2024/03/29 03:13:00;;;;;;;3.42;0.70;;;;;;;;;;5073693;28;20099;-79
2024/03/29 03:15:26;;;;;;;3.00;0.77;;;;;;;;;;5071989;28;20034;-79
2024/03/29 03:17:52;;;;;;;2.42;0.90;;;;;;;;;;5071945;28;20021;-78
2024/03/29 03:20:19;;;;;;;2.08;0.60;;;;;;;;;;5071657;28;20078;-77
2024/03/29 03:22:45;;;;;;;4.38;1.15;;;;;;;;;;5072919;28;20035;-79
2024/03/29 03:25:11;;;;;;;8.82;1.00;;;;;;;;;;5071521;28;20053;-79
2024/03/29 03:27:37;;;;;;;2.63;0.73;;;;;;;;;;5071580;28;20024;-79
2024/03/29 03:30:03;;;;;;;2.97;0.77;;;;;;;;;;5071020;28;20028;-78
2024/03/29 03:32:29;;;;;;;5.70;1.10;;;;;;;;;;5071488;28;20078;-79
2024/03/29 03:34:55;;;;;;;4.20;1.05;;;;;;;;;;5071577;28;20468;-79
2024/03/29 03:37:21;;;;;;;7.63;1.10;;;;;;;;;;5073138;28;20024;-77
2024/03/29 03:39:47;;;;;;;5.95;0.98;;;;;;;;;;5071182;28;20059;-78
2024/03/29 03:42:14;;;;;;;5.45;0.80;;;;;;;;;;5072987;28;20044;-79
2024/03/29 03:44:40;;;;;;;5.40;1.60;;;;;;;;;;5071214;28;20031;-79
2024/03/29 03:47:06;;;;;;;2.92;0.93;;;;;;;;;;5071414;28;20111;-77
2024/03/29 03:49:32;;;;;;;3.92;1.65;;;;;;;;;;5071221;28;20024;-78
2024/03/29 03:51:58;;;;;;;5.72;0.77;;;;;;;;;;5071312;28;20070;-78
2024/03/29 03:54:24;;;;;;;2.92;0.80;;;;;;;;;;5072405;28;20013;-77
2024/03/29 03:56:50;;;;;;;7.05;1.63;;;;;;;;;;5071286;28;20361;-78
2024/03/29 03:59:16;;;;;;;4.68;1.00;;;;;;;;;;5071251;28;20055;-77
2024/03/29 04:01:42;;;;;;;3.85;0.70;;;;;;;;;;5072205;28;20075;-78
2024/03/29 04:04:08;;;;;;;5.47;0.88;;;;;;;;;;5071213;28;20028;-77
2024/03/29 04:06:34;;;;;;;5.75;1.27;;;;;;;;;;5072210;28;20025;-78
2024/03/29 04:09:00;;;;;;;4.05;1.08;;;;;;;;;;5071183;28;20020;-78
2024/03/29 04:11:27;;;;;;;2.28;0.68;;;;;;;;;;5070913;28;20385;-77
2024/03/29 04:13:53;;;;;;;2.75;0.98;;;;;;;;;;5071097;28;20381;-78
2024/03/29 04:16:19;;;;;;;3.70;1.40;;;;;;;;;;5071173;28;20039;-78
2024/03/29 04:18:45;;;;;;;4.63;0.80;;;;;;;;;;5070807;28;20024;-77
2024/03/29 04:21:11;;;;;;;5.22;0.70;;;;;;;;;;5072466;28;20025;-78
2024/03/29 04:23:37;;;;;;;1.55;0.68;;;;;;;;;;5070557;28;20029;-78
2024/03/29 04:26:03;;;;;;;3.58;0.47;;;;;;;;;;5070855;28;20052;-78
2024/03/29 04:28:29;;;;;;;6.80;0.70;;;;;;;;;;5070642;28;20123;-79
2024/03/29 04:30:56;;;;;;;4.18;0.57;;;;;;;;;;5071381;28;20025;-76
2024/03/29 04:33:22;;;;;;;5.90;0.75;;;;;;;;;;5071334;28;20025;-77
2024/03/29 04:35:59;;;;;;;2.85;0.65;;;;;;;;;;5072077;28;20024;-79
2024/03/29 04:38:26;;;;;;;3.33;0.88;;;;;;;;;;5072073;28;20031;-77
2024/03/29 04:40:53;;;;;;;3.58;1.00;;;;;;;;;;5071280;28;20069;-78
2024/03/29 04:43:19;;;;;;;1.33;0.60;;;;;;;;;;5074906;28;20074;-77
2024/03/29 04:45:45;;;;;;;3.22;0.52;;;;;;;;;;5076005;28;20032;-78
2024/03/29 04:48:11;;;;;;;2.78;0.68;;;;;;;;;;5076318;28;20108;-77
2024/03/29 04:50:38;;;;;;;1.52;0.60;;;;;;;;;;5074720;28;20472;-79
2024/03/29 04:53:04;;;;;;;3.90;0.60;;;;;;;;;;5075732;28;20035;-78
2024/03/29 04:55:30;;;;;;;2.42;0.60;;;;;;;;;;5074884;28;20025;-77
2024/03/29 04:57:56;;;;;;;3.15;0.63;;;;;;;;;;5074716;28;20059;-77
2024/03/29 05:00:22;;;;;;;5.32;0.82;;;;;;;;;;5076231;28;20029;-77
2024/03/29 05:02:48;;;;;;;7.70;1.17;;;;;;;;;;5074476;28;20064;-78
2024/03/29 05:05:14;;;;;;;2.50;0.93;;;;;;;;;;5074550;28;20037;-78
2024/03/29 05:07:40;;;;;;;4.78;0.90;;;;;;;;;;5074365;28;20025;-78
2024/03/29 05:10:07;;;;;;;3.35;0.88;;;;;;;;;;5074614;28;20028;-78
2024/03/29 05:12:33;;;;;;;3.42;0.63;;;;;;;;;;5074227;28;20498;-80
2024/03/29 05:14:59;;;;;;;4.97;0.90;;;;;;;;;;5076019;28;20024;-78
2024/03/29 05:17:27;;;;;;;3.25;0.75;;;;;;;;;;5075477;28;20468;-78
2024/03/29 05:19:53;;;;;;;7.97;0.75;;;;;;;;;;5075501;28;20056;-78
2024/03/29 05:22:19;;;;;;;4.55;0.80;;;;;;;;;;5075742;28;20082;-77
2024/03/29 05:24:45;;;;;;;3.58;0.80;;;;;;;;;;5073901;28;20060;-78
2024/03/29 05:27:15;;;;;;;6.18;1.00;;;;;;;;;;5074100;28;20035;-78
2024/03/29 05:29:41;;;;;;;4.65;1.00;;;;;;;;;;5073862;28;20132;-77
2024/03/29 05:32:10;;;;;;;3.38;0.88;;;;;;;;;;5075580;28;20029;-77
2024/03/29 05:34:36;;;;;;;3.25;1.00;;;;;;;;;;5073597;28;20024;-77
2024/03/29 05:37:02;;;;;;;5.38;1.17;;;;;;;;;;5073665;28;20075;-78
2024/03/29 05:39:28;;;;;;;1.65;0.52;;;;;;;;;;5073598;28;20052;-79
2024/03/29 05:41:54;;;;;;;3.55;1.30;;;;;;;;;;5073244;28;20468;-79
2024/03/29 05:44:20;;;;;;;6.28;1.88;;;;;;;;;;5074785;28;20032;-79
2024/03/29 05:46:46;;;;;;;3.15;1.10;;;;;;;;;;5073028;28;20024;-77
2024/03/29 05:49:12;;;;;;;7.65;1.83;;;;;;;;;;5074914;28;20078;-78
2024/03/29 05:51:39;;;;;;;6.03;1.23;;;;;;;;;;5073405;28;20020;-79
2024/03/29 05:54:05;;;;;;;5.60;1.27;;;;;;;;;;5072915;28;20423;-80
2024/03/29 05:56:31;;;;;;;6.50;1.13;;;;;;;;;;5074850;28;20460;-78
2024/03/29 05:58:57;;;;;;;5.18;1.33;;;;;;;;;;5075145;28;20468;-76
2024/03/29 06:01:23;;;;;;;2.88;0.80;;;;;;;;;;5073401;28;20028;-77
2024/03/29 06:03:52;;;;;;;4.78;1.00;;;;;;;;;;5074449;28;20112;-77
2024/03/29 06:06:22;;;;;;;2.45;0.80;;;;;;;;;;5073286;28;20483;-79
2024/03/29 06:08:48;;;;;;;5.25;1.90;;;;;;;;;;5073080;28;20119;-79
2024/03/29 06:11:14;;;;;;;3.00;0.75;;;;;;;;;;5074780;28;20025;-78
2024/03/29 06:19:12;;;;;;;2.00;1.50;;;;;;;;;;5074818;28;20036;-78
2024/03/29 06:21:39;;;;;;;3.03;0.90;;;;;;;;;;5074939;28;20454;-78
2024/03/29 06:24:07;;;;;;;3.88;1.40;;;;;;;;;;5073563;28;20025;-77
2024/03/29 06:26:33;;;;;;;4.70;1.17;;;;;;;;;;5073480;28;20496;-77
2024/03/29 06:28:59;;;;;;;5.95;0.90;;;;;;;;;;5074048;28;20020;-78
2024/03/29 06:31:25;;;;;;;4.53;1.20;;;;;;;;;;5072781;28;20052;-77
2024/03/29 06:33:51;;;;;;;4.75;1.00;;;;;;;;;;5073732;28;20058;-79
2024/03/29 06:36:17;;;;;;;2.50;0.90;;;;;;;;;;5072634;28;20036;-78
2024/03/29 06:38:43;;;;;;;6.45;1.35;;;;;;;;;;5072253;28;20020;-77
2024/03/29 06:41:09;;;;;;;5.32;1.40;;;;;;;;;;5072392;28;20033;-78
2024/03/29 06:43:35;;;;;;;6.35;1.27;;;;;;;;;;5073534;28;20032;-79
2024/03/29 06:46:03;;;;;;;2.47;0.77;;;;;;;;;;5072334;28;20032;-79
2024/03/29 06:48:31;;;;;;;3.60;0.90;;;;;;;;;;5072497;28;20029;-79
2024/03/29 06:50:58;;;;;;;3.83;1.20;;;;;;;;;;5072362;28;20036;-78
2024/03/29 06:53:24;;;;;;;3.90;1.25;;;;;;;;;;5072596;28;20024;-78
2024/03/29 06:55:50;;;;;;;4.00;1.02;;;;;;;;;;5072521;28;20112;-80
2024/03/29 06:58:16;;;;;;;4.28;0.93;;;;;;;;;;5072802;28;20016;-79
2024/03/29 07:00:42;;;;;;;3.40;1.20;;;;;;;;;;5072452;28;20068;-79
2024/03/29 07:03:08;;;;;;;4.20;0.90;;;;;;;;;;5074085;28;20016;-79
2024/03/29 07:05:34;;;;;;;2.75;1.08;;;;;;;;;;5072573;28;20028;-80
2024/03/29 07:08:01;;;;;;;3.17;1.02;;;;;;;;;;5072636;28;20376;-79
2024/03/29 07:10:27;;;;;;;7.57;1.48;;;;;;;;;;5071137;28;20108;-79
2024/03/29 07:12:53;;;;;;;4.03;1.42;;;;;;;;;;5073448;28;20070;-79
2024/03/29 07:15:19;;;;;;;5.30;1.50;;;;;;;;;;5072137;28;20435;-79
2024/03/29 07:17:46;;;;;;;8.07;1.63;;;;;;;;;;5073436;28;20016;-78
2024/03/29 07:20:12;;;;;;;5.25;1.58;;;;;;;;;;5073393;28;20021;-80
2024/03/29 07:22:38;;;;;;;7.65;3.58;;;;;;;;;;5073677;28;20020;-80
2024/03/29 07:25:04;;;;;;;3.75;1.25;;;;;;;;;;5072210;28;20575;-80
2024/03/29 07:27:35;;;;;;;3.00;1.52;;;;;;;;;;5072311;28;20517;-79
2024/03/29 07:30:02;;;;;;;4.22;1.40;;;;;;;;;;5072196;28;20051;-80
2024/03/29 07:32:29;;;;;;;5.20;1.52;;;;;;;;;;5073105;28;20411;-81
2024/03/29 07:34:57;;;;;;;6.43;1.50;;;;;;;;;;5071625;28;20040;-81
2024/03/29 07:37:24;;;;;;;5.55;1.50;;;;;;;;;;5073892;28;20384;-80
2024/03/29 07:39:50;;;;;;;4.63;1.33;;;;;;;;;;5072905;28;20029;-81
2024/03/29 07:42:16;;;;;;;4.88;1.58;;;;;;;;;;5072639;28;20071;-82
2024/03/29 07:44:42;;;;;;;4.32;1.67;;;;;;;;;;5072256;28;20042;-82
2024/03/29 07:47:08;;;;;;;5.80;1.40;;;;;;;;;;5072351;28;20035;-82
2024/03/29 07:49:35;;;;;;;5.32;1.40;;;;;;;;;;5072298;28;20389;-81
2024/03/29 07:52:05;;;;;;;6.38;1.83;;;;;;;;;;5071373;28;20048;-80
2024/03/29 07:54:31;;;;;;;4.25;1.42;;;;;;;;;;5070857;28;20056;-81
2024/03/29 07:56:57;;;;;;;7.82;1.67;;;;;;;;;;5071020;28;20027;-81
2024/03/29 07:59:23;;;;;;;6.88;1.70;;;;;;;;;;5071133;28;20024;-81
2024/03/29 08:01:50;;;;;;;5.60;1.50;;;;;;;;;;5070929;28;20020;-80
2024/03/29 08:04:16;;;;;;;3.50;1.20;;;;;;;;;;5072269;28;20418;-80
2024/03/29 08:06:42;;;;;;;4.32;1.33;;;;;;;;;;5070886;28;20078;-79
2024/03/29 08:09:09;;;;;;;4.47;1.75;;;;;;;;;;5072965;28;20021;-78
2024/03/29 08:11:35;;;;;;;4.63;1.50;;;;;;;;;;5072116;28;20035;-80
2024/03/29 08:14:02;;;;;;;7.70;1.55;;;;;;;;;;5073632;28;20095;-79
2024/03/29 08:16:28;;;;;;;3.75;1.20;;;;;;;;;;5072199;28;20472;-82
2024/03/29 08:18:54;;;;;;;9.88;1.73;;;;;;;;;;5070914;28;20158;-80
2024/03/29 08:21:20;;;;;;;2.80;0.95;;;;;;;;;;5066238;28;20025;-81
2024/03/29 08:23:47;;;;;;;5.07;1.80;;;;;;;;;;5058820;28;20025;-80
2024/03/29 08:26:15;;;;;;;15.70;2.33;;;;;;;;;;5071539;28;20589;-82
2024/03/29 08:28:41;;;;;;;6.65;2.13;;;;;;;;;;5086175;28;20028;-82
2024/03/29 08:31:09;;;;;;;4.07;1.35;;;;;;;;;;5073711;28;20024;-81
2024/03/29 08:33:37;;;;;;;7.13;2.05;;;;;;;;;;5084676;28;20028;-81
2024/03/29 08:36:04;;;;;;;6.07;1.67;;;;;;;;;;5080645;28;20020;-80
2024/03/29 08:38:30;;;;;;;5.57;1.48;;;;;;;;;;5077584;28;20024;-81
2024/03/29 08:40:56;;;;;;;5.85;1.58;;;;;;;;;;5086771;28;20452;-81
2024/03/29 08:43:22;;;;;;;6.28;1.83;;;;;;;;;;5073738;28;20043;-80
2024/03/29 08:45:48;;;;;;;4.07;1.20;;;;;;;;;;5084197;28;20066;-82
2024/03/29 08:48:14;;;;;;;4.22;1.52;;;;;;;;;;5081372;28;20039;-82
2024/03/29 08:50:40;;;;;;;5.93;1.67;;;;;;;;;;5070889;28;20110;-82
2024/03/29 08:53:07;;;;;;;4.15;1.98;;;;;;;;;;5070951;28;20047;-81
2024/03/29 08:55:33;;;;;;;4.25;1.88;;;;;;;;;;5070731;28;20032;-81
2024/03/29 08:58:00;;;;;;;3.80;1.42;;;;;;;;;;5070196;28;20063;-81
2024/03/29 09:00:26;;;;;;;4.68;1.88;;;;;;;;;;5070669;28;20098;-82
2024/03/29 09:02:53;;;;;;;7.65;3.03;;;;;;;;;;5070355;28;20116;-81
2024/03/29 09:05:19;;;;;;;6.15;2.05;;;;;;;;;;5070609;28;20545;-81
2024/03/29 09:07:45;;;;;;;6.47;2.00;;;;;;;;;;5070512;28;20053;-81
2024/03/29 09:10:11;;;;;;;4.85;1.90;;;;;;;;;;5070670;28;20384;-81
2024/03/29 09:12:37;;;;;;;5.45;1.50;;;;;;;;;;5070568;28;20028;-81
2024/03/29 09:15:08;;;;;;;7.53;1.88;;;;;;;;;;5071003;28;20081;-80
2024/03/29 09:17:34;;;;;;;5.93;1.77;;;;;;;;;;5070402;28;20028;-80
2024/03/29 09:20:00;;;;;;;6.03;1.58;;;;;;;;;;5070152;28;20325;-80
2024/03/29 09:22:26;;;;;;;3.60;1.55;;;;;;;;;;5070300;28;20469;-79
2024/03/29 09:24:52;;;;;;;3.55;1.42;;;;;;;;;;5069868;28;20053;-79
2024/03/29 09:27:18;;;;;;;6.43;1.98;;;;;;;;;;5070108;28;20025;-79
2024/03/29 09:29:48;;;;;;;6.63;1.80;;;;;;;;;;5073426;28;20119;-80
2024/03/29 09:32:17;;;;;;;4.93;1.40;;;;;;;;;;5073994;28;20472;-79
2024/03/29 09:34:44;;;;;;;4.28;1.95;;;;;;;;;;5073649;28;20055;-80
2024/03/29 09:37:10;;;;;;;3.67;1.50;;;;;;;;;;5073887;28;20029;-79
2024/03/29 09:39:36;;;;;;;6.45;2.40;;;;;;;;;;5075058;28;20020;-80
2024/03/29 09:42:03;;;;;;;6.05;1.70;;;;;;;;;;5073249;28;20031;-79
2024/03/29 09:44:33;;;;;;;5.40;1.38;;;;;;;;;;5074782;28;20057;-79
2024/03/29 09:47:03;;;;;;;6.30;1.73;;;;;;;;;;5073329;28;20032;-80
2024/03/29 09:49:30;;;;;;;8.93;3.53;;;;;;;;;;5075311;28;20035;-80
2024/03/29 09:51:56;;;;;;;5.03;1.38;;;;;;;;;;5073568;28;20129;-79
2024/03/29 09:54:23;;;;;;;5.80;1.30;;;;;;;;;;5073747;28;20033;-80
2024/03/29 09:56:50;;;;;;;4.90;1.40;;;;;;;;;;5073538;28;20028;-80
2024/03/29 09:59:16;;;;;;;3.42;1.30;;;;;;;;;;5075347;28;20048;-79
2024/03/29 10:01:42;;;;;;;5.05;1.27;;;;;;;;;;5075498;28;20029;-81
2024/03/29 10:04:09;;;;;;;5.75;1.45;;;;;;;;;;5074014;28;20037;-80
2024/03/29 10:06:35;;;;;;;5.45;1.80;;;;;;;;;;5075909;28;20063;-79
2024/03/29 10:09:01;;;;;;;3.20;1.40;;;;;;;;;;5073264;28;20221;-80
2024/03/29 10:11:27;;;;;;;3.30;1.30;;;;;;;;;;5074580;28;20103;-79
2024/03/29 10:13:54;;;;;;;3.92;1.63;;;;;;;;;;5072951;28;20016;-79
2024/03/29 10:16:27;;;;;;;4.43;1.52;;;;;;;;;;5073333;28;20028;-81
2024/03/29 10:18:53;;;;;;;3.92;1.20;;;;;;;;;;5072866;28;20032;-81
2024/03/29 10:21:26;;;;;;;3.83;1.35;;;;;;;;;;5073030;28;20477;-81
2024/03/29 10:23:52;;;;;;;7.63;2.00;;;;;;;;;;5072799;28;20021;-79
2024/03/29 10:26:19;;;;;;;6.80;1.73;;;;;;;;;;5074046;28;20060;-81
2024/03/29 10:28:47;;;;;;;3.08;1.42;;;;;;;;;;5072777;28;20415;-80
2024/03/29 10:31:14;;;;;;;5.63;1.48;;;;;;;;;;5072607;28;20028;-81
2024/03/29 10:33:42;;;;;;;3.88;1.10;;;;;;;;;;5073957;28;20021;-80
2024/03/29 10:36:11;;;;;;;5.63;1.30;;;;;;;;;;5072713;28;20111;-80
2024/03/29 10:38:38;;;;;;;2.77;1.20;;;;;;;;;;5072531;28;20029;-81
2024/03/29 10:41:06;;;;;;;5.45;1.50;;;;;;;;;;5072235;28;20036;-80
2024/03/29 10:43:33;;;;;;;4.53;1.58;;;;;;;;;;5072453;28;20025;-80
2024/03/29 10:46:00;;;;;;;4.53;1.50;;;;;;;;;;5073451;28;20089;-80
2024/03/29 10:48:36;;;;;;;5.40;2.00;;;;;;;;;;5072078;28;20115;-80
2024/03/29 10:51:02;;;;;;;2.78;1.00;;;;;;;;;;5072565;28;20029;-80
2024/03/29 10:53:30;;;;;;;3.97;1.45;;;;;;;;;;5072499;28;20028;-80
2024/03/29 10:55:58;;;;;;;7.00;2.20;;;;;;;;;;5071970;28;20535;-80
2024/03/29 10:58:30;;;;;;;4.43;1.40;;;;;;;;;;5072403;28;20016;-80
2024/03/29 11:00:57;;;;;;;3.83;1.45;;;;;;;;;;5071619;28;20476;-80
2024/03/29 11:03:33;;;;;;;3.28;1.30;;;;;;;;;;5072127;28;20036;-81
2024/03/29 11:06:03;;;;;;;4.32;1.20;;;;;;;;;;5071526;28;20070;-80
2024/03/29 11:08:34;;;;;;;4.13;1.52;;;;;;;;;;5071861;28;20028;-81
2024/03/29 11:11:01;;;;;;;2.67;1.20;;;;;;;;;;5071463;28;20039;-81
2024/03/29 11:13:45;;;;;;;4.00;1.23;;;;;;;;;;5055146;28;20119;-81
2024/03/29 11:16:12;;;;;;;3.47;1.70;;;;;;;;;;5071393;28;20438;-81
2024/03/29 11:18:38;;;;;;;3.05;1.30;;;;;;;;;;5072772;28;20078;-81
2024/03/29 11:21:08;;;;;;;5.22;1.70;;;;;;;;;;5071562;28;20039;-81
2024/03/29 11:23:34;;;;;;;6.70;1.45;;;;;;;;;;5072855;28;20036;-80
2024/03/29 11:26:00;;;;;;;4.68;1.42;;;;;;;;;;5072275;28;20036;-80
2024/03/29 11:28:34;;;;;;;2.90;1.38;;;;;;;;;;5071851;28;20028;-80
2024/03/29 11:31:00;;;;;;;5.07;1.58;;;;;;;;;;5071441;28;20036;-81
2024/03/29 11:33:26;;;;;;;4.50;1.40;;;;;;;;;;5072614;28;20487;-81
2024/03/29 11:35:52;;;;;;;4.97;1.50;;;;;;;;;;5071227;28;20028;-81
2024/03/29 11:38:19;;;;;;;3.75;1.08;;;;;;;;;;5071437;28;20021;-82
2024/03/29 11:40:55;;;;;;;4.80;1.30;;;;;;;;;;5071461;28;20073;-80
2024/03/29 11:43:21;;;;;;;2.22;1.05;;;;;;;;;;5071588;28;20103;-81
2024/03/29 11:45:51;;;;;;;2.22;1.20;;;;;;;;;;5072422;28;20120;-80
2024/03/29 11:48:17;;;;;;;;;;;;;;;;;;5071768;28;20035;-80
2024/03/29 11:50:43;;;;;;;5.03;1.13;;;;;;;;;;5072439;28;19995;-80
2024/03/29 11:53:09;;;;;;;8.00;1.88;;;;;;;;;;5071293;28;20028;-80
2024/03/29 11:55:35;;;;;;;3.47;1.55;;;;;;;;;;5073105;28;20028;-79
2024/03/29 11:58:03;;;;;;;4.13;1.27;;;;;;;;;;5073497;28;20028;-80
2024/03/29 12:00:29;;;;;;;4.10;1.20;;;;;;;;;;5071528;28;20021;-81
2024/03/29 12:02:57;;;;;;;4.45;1.30;;;;;;;;;;5071174;28;20028;-80
2024/03/29 12:05:23;;;;;;;3.28;1.23;;;;;;;;;;5071587;28;20360;-81
2024/03/29 12:07:49;;;;;;;3.33;1.00;;;;;;;;;;5070806;28;20025;-81
2024/03/29 12:10:15;;;;;;;5.28;1.27;;;;;;;;;;5071515;28;20029;-81
2024/03/29 12:12:42;;;;;;;2.67;1.02;;;;;;;;;;5073346;28;20016;-81
2024/03/29 12:15:08;;;;;;;4.38;1.20;;;;;;;;;;5071716;28;20035;-81
2024/03/29 12:17:35;;;;;;;3.10;1.27;;;;;;;;;;5072053;28;20031;-82
2024/03/29 12:20:04;;;;;;;3.95;1.10;;;;;;;;;;5072460;28;20060;-82
2024/03/29 12:22:31;;;;;;;2.75;0.80;;;;;;;;;;5072326;28;20021;-82
2024/03/29 12:24:57;;;;;;;2.45;0.95;;;;;;;;;;5072055;28;20044;-81
2024/03/29 12:27:24;;;;;;;2.95;0.93;;;;;;;;;;5072598;28;20040;-82
2024/03/29 12:29:50;;;;;;;2.78;0.98;;;;;;;;;;5072643;28;20020;-81
2024/03/29 12:32:20;;;;;;;2.08;0.80;;;;;;;;;;5074377;28;20020;-82
2024/03/29 12:34:46;;;;;;;3.35;1.20;;;;;;;;;;5074005;28;20084;-82
2024/03/29 12:37:13;;;;;;;1.65;0.77;;;;;;;;;;5072495;28;20465;-80
2024/03/29 12:39:42;;;;;;;1.20;0.60;;;;;;;;;;5074272;28;20040;-82
2024/03/29 12:42:08;;;;;;;2.37;1.00;;;;;;;;;;5072674;28;20028;-82
2024/03/29 12:44:34;;;;;;;5.43;0.85;;;;;;;;;;5073803;28;20042;-83
2024/03/29 12:47:02;;;;;;;2.80;1.23;;;;;;;;;;5073314;28;20032;-81
2024/03/29 12:49:28;;;;;;;2.08;0.70;;;;;;;;;;5072563;28;20021;-82
2024/03/29 12:51:56;;;;;;;2.60;1.00;;;;;;;;;;5072234;28;20739;-82
2024/03/29 12:54:23;;;;;;;2.20;0.70;;;;;;;;;;5073703;28;20479;-81
2024/03/29 12:56:49;;;;;;;2.50;0.65;;;;;;;;;;5071598;28;20028;-83
2024/03/29 12:59:15;;;;;;;1.80;0.73;;;;;;;;;;5071921;28;20020;-82
2024/03/29 13:01:41;;;;;;;2.53;0.93;;;;;;;;;;5073227;28;20029;-83
2024/03/29 13:04:07;;;;;;;2.45;1.00;;;;;;;;;;5076034;28;20027;-80
2024/03/29 13:06:33;;;;;;;3.30;1.15;;;;;;;;;;5076809;28;20025;-82
2024/03/29 13:08:59;;;;;;;3.03;0.82;;;;;;;;;;5075627;28;20033;-81
2024/03/29 13:11:25;;;;;;;1.73;0.85;;;;;;;;;;5074448;28;20024;-81
2024/03/29 13:13:51;;;;;;;1.63;0.60;;;;;;;;;;5073952;28;20025;-81
2024/03/29 13:16:18;;;;;;;3.05;0.85;;;;;;;;;;5074252;28;20024;-82
2024/03/29 13:18:44;;;;;;;5.03;0.90;;;;;;;;;;5074302;28;20028;-81
2024/03/29 13:21:10;;;;;;;2.35;0.70;;;;;;;;;;5074074;28;20032;-81
2024/03/29 13:23:36;;;;;;;2.15;0.60;;;;;;;;;;5075991;28;20031;-81
2024/03/29 13:26:03;;;;;;;2.30;0.60;;;;;;;;;;5074707;28;20128;-81
2024/03/29 13:28:29;;;;;;;2.13;0.80;;;;;;;;;;5073943;28;20357;-81
2024/03/29 13:30:56;;;;;;;1.75;0.70;;;;;;;;;;5075000;28;20082;-81
2024/03/29 13:33:22;;;;;;;3.20;0.65;;;;;;;;;;5074074;28;20032;-81
2024/03/29 13:35:51;;;;;;;1.30;0.70;;;;;;;;;;5074047;28;20036;-81
2024/03/29 13:38:21;;;;;;;5.03;0.73;;;;;;;;;;5075603;28;20067;-81
2024/03/29 13:40:47;;;;;;;1.13;0.50;;;;;;;;;;5074543;28;20024;-79
2024/03/29 13:43:13;;;;;;;2.00;0.85;;;;;;;;;;5074866;28;20026;-80
2024/03/29 13:45:39;;;;;;;1.23;0.50;;;;;;;;;;5073999;28;20498;-80
2024/03/29 13:48:08;;;;;;;0.70;0.40;;;;;;;;;;5074152;28;20115;-81
2024/03/29 13:50:34;;;;;;;3.50;0.80;;;;;;;;;;5073729;28;20376;-83
2024/03/29 13:53:00;;;;;;;1.38;0.52;;;;;;;;;;5074933;28;20032;-82
2024/03/29 13:55:26;;;;;;;1.05;0.60;;;;;;;;;;5073847;28;20031;-81
2024/03/29 13:57:56;;;;;;;0.80;0.50;;;;;;;;;;5073555;28;20032;-81
2024/03/29 14:00:23;;;;;;;0.77;0.43;;;;;;;;;;5073728;28;20028;-82
2024/03/29 14:02:49;;;;;;;2.00;0.60;;;;;;;;;;5075181;28;20028;-82
2024/03/29 14:05:16;;;;;;;1.23;0.57;;;;;;;;;;5075419;28;20025;-81
2024/03/29 14:07:42;;;;;;;1.70;0.57;;;;;;;;;;5075200;28;20115;-82
2024/03/29 14:10:08;;;;;;;3.38;0.65;;;;;;;;;;5073240;28;20044;-82
2024/03/29 14:12:35;;;;;;;2.10;0.50;;;;;;;;;;5073073;28;20054;-81
2024/03/29 14:15:06;;;;;;;2.35;0.50;;;;;;;;;;5073523;28;20020;-81
2024/03/29 14:17:32;;;;;;;1.23;0.50;;;;;;;;;;5073260;28;20111;-82
2024/03/29 14:19:59;;;;;;;1.17;0.50;;;;;;;;;;5072875;28;20024;-81
2024/03/29 14:22:25;;;;;;;1.27;0.50;;;;;;;;;;5073015;28;20472;-81
2024/03/29 14:24:52;;;;;;;2.53;0.50;;;;;;;;;;5072954;28;20064;-82
2024/03/29 14:27:18;;;;;;;2.22;0.60;;;;;;;;;;5072937;28;20124;-82
2024/03/29 14:29:46;;;;;;;1.00;0.40;;;;;;;;;;5073091;28;20020;-82
2024/03/29 14:32:12;;;;;;;0.47;0.30;;;;;;;;;;5072809;28;20409;-82
2024/03/29 14:34:44;;;;;;;1.00;0.40;;;;;;;;;;5073287;28;20067;-82
2024/03/29 14:37:13;;;;;;;0.68;0.55;;;;;;;;;;5072540;28;20040;-82
2024/03/29 14:39:41;;;;;;;0.98;0.40;;;;;;;;;;5072813;28;20085;-81
2024/03/29 14:42:09;;;;;;;1.48;0.50;;;;;;;;;;5074082;28;20075;-81
2024/03/29 14:44:35;;;;;;;0.90;0.57;;;;;;;;;;5072859;28;20023;-82
2024/03/29 14:47:01;;;;;;;3.95;0.60;;;;;;;;;;5072319;28;20078;-83
2024/03/29 14:49:27;;;;;;;0.95;0.60;;;;;;;;;;5072652;28;20024;-82
2024/03/29 14:51:53;;;;;;;2.60;0.90;;;;;;;;;;5072650;28;20024;-83